Woodstock, NY (12498)

9:32 AM EST on November 26, 2014 (GMT -0500)
Overlook Mountain | Change Station
CLOSE
Current Station
Personal Weather Station
Location: Woodstock, NY
Elevation: 1407 ft
Nearby Weather Stations
Active Advisory: Winter Storm Warning

Elev 1407 ft 42.06 °N, 74.12 °W | Updated 10 minutes ago

Snow
Snow
33.1 °F
Feels Like 33 °F
N
1.1
Wind Variable Wind from West

Today
High -- | Low -- °F
--% Chance of Precip.
Yesterday
High -- | Low -- °F
Precip. -- in
6:59 AM 4:27 PM
Waxing Crescent, 20% visible
Pressure 30.15 in
Visibility 0.8 miles
Clouds Overcast 1000 ft
Windchill 33 °F
Dew Point 29 °F
Humidity 84%
Rainfall 0.00 in
Snow Depth Not available.
UV 0 out of 12
Pollen .10 out of 12
Air Quality Not available.
Flu Activity Not available.
SPECI KPOU 261417Z 03005KT 3/4SM -SN BR OVC010 01/M01 A3015 RMK AO2 P0003 T00111006

More Conditions Fewer Conditions

Pressure 30.15 in
Visibility 0.8 miles
Clouds Overcast 1000 ft
Windchill 33 °F
Dew Point 29 °F
Humidity 84%
Rainfall 0.00 in
Snow Depth Not available.
UV 0 out of 12
Pollen .10 out of 12
Air Quality Not available.
Flu Activity Not available.
SPECI KPOU 261417Z 03005KT 3/4SM -SN BR OVC010 01/M01 A3015 RMK AO2 P0003 T00111006

More Conditions Fewer Conditions

10-Day Weather Forecast

Almanac

Astronomy

Nov. 26, 2014 Rise Set
Actual Time
Civil Twilight
Nautical Twilight
Astronomical Twilight
Moon
Length of Visible Light
Length of Day
Tomorrow will be .
, % of the Moon is Illuminated

Today's Extremes

State Highs State Lows

Community

WunderPhotos

Upload Photos

1,773,756 photos uploaded!

WunderBlogs® & News

Nearby

Air Quality

  Air Quality AQ Index Pollutant
Not available.

Snow Depth

Station Depth Elevation

Earthquake Activity

City Distance Mag. Time & Date
Minimum magnitude displayed is 2.5.

Coastal Water Temperatures

Place Temperature

Nearby Weather Stations